Time;durP1;ratioP1;P1;durP2;ratioP2;P2;SDS_P1;SDS_P2;PMS_P1;PMS_P2;Temp;Humidity;BMP_temperature;BMP_pressure;BME280_temperature;BME280_humidity;BME280_pressure;Samples;Min_cycle;Max_cycle;Signal;HPM_P1;HPM_P2
2023/09/09 00:01:08;;;;;;;7.60;5.20;;;;;;;;;;4969378;28;20094;-73
2023/09/09 00:03:34;;;;;;;9.05;4.88;;;;;;;;;;4966170;28;20057;-73
2023/09/09 00:06:06;;;;;;;9.25;4.97;;;;;;;;;;4970209;28;20381;-73
2023/09/09 00:08:31;;;;;;;7.43;4.88;;;;;;;;;;4972555;28;20019;-73
2023/09/09 00:10:56;;;;;;;6.68;4.63;;;;;;;;;;4968814;28;20034;-72
2023/09/09 00:13:22;;;;;;;7.97;4.83;;;;;;;;;;4966474;28;20316;-72
2023/09/09 00:15:52;;;;;;;7.87;4.40;;;;;;;;;;4968430;28;20030;-72
2023/09/09 00:18:17;;;;;;;7.65;4.60;;;;;;;;;;4967774;28;20278;-72
2023/09/09 00:20:42;;;;;;;12.80;5.17;;;;;;;;;;4967668;28;20035;-72
2023/09/09 00:23:07;;;;;;;7.80;5.00;;;;;;;;;;4963317;28;20367;-72
2023/09/09 00:25:36;;;;;;;7.70;4.67;;;;;;;;;;4969437;28;20026;-72
2023/09/09 00:28:02;;;;;;;12.73;4.82;;;;;;;;;;4975767;28;20649;-73
2023/09/09 00:30:27;;;;;;;13.50;5.15;;;;;;;;;;4969005;28;20035;-73
2023/09/09 00:32:52;;;;;;;12.55;5.28;;;;;;;;;;4951768;28;20477;-73
2023/09/09 00:35:18;;;;;;;8.00;4.83;;;;;;;;;;4971694;28;20069;-73
2023/09/09 00:37:43;;;;;;;8.17;5.07;;;;;;;;;;4971372;28;20022;-73
2023/09/09 00:40:08;;;;;;;12.93;5.30;;;;;;;;;;4974567;28;20027;-73
2023/09/09 00:42:33;;;;;;;10.80;5.57;;;;;;;;;;4965662;28;20286;-73
2023/09/09 00:44:58;;;;;;;13.23;5.60;;;;;;;;;;4967340;28;20022;-73
2023/09/09 00:47:24;;;;;;;12.87;5.60;;;;;;;;;;4971055;28;20262;-73
2023/09/09 00:49:49;;;;;;;11.93;5.60;;;;;;;;;;4971443;28;20286;-73
2023/09/09 00:52:15;;;;;;;8.07;5.40;;;;;;;;;;4971458;28;20030;-73
2023/09/09 00:54:40;;;;;;;14.60;5.53;;;;;;;;;;4969120;28;20026;-73
2023/09/09 00:57:05;;;;;;;13.67;5.57;;;;;;;;;;4968976;28;20541;-73
2023/09/09 00:59:31;;;;;;;9.82;4.85;;;;;;;;;;4968715;28;20274;-73
2023/09/09 01:01:57;;;;;;;8.27;5.25;;;;;;;;;;4970493;28;20027;-73
2023/09/09 01:04:22;;;;;;;15.88;5.13;;;;;;;;;;4965891;28;20014;-73
2023/09/09 01:06:47;;;;;;;11.60;5.43;;;;;;;;;;4972055;28;20027;-73
2023/09/09 01:09:12;;;;;;;10.85;5.40;;;;;;;;;;4970428;28;20735;-73
2023/09/09 01:11:38;;;;;;;8.93;5.60;;;;;;;;;;4973461;28;20042;-73
2023/09/09 01:14:03;;;;;;;9.07;5.73;;;;;;;;;;4963811;28;20514;-73
2023/09/09 01:16:30;;;;;;;7.63;5.28;;;;;;;;;;4966826;28;20060;-73
2023/09/09 01:18:55;;;;;;;7.63;5.15;;;;;;;;;;4970536;28;20022;-73
2023/09/09 01:21:21;;;;;;;9.85;4.90;;;;;;;;;;4967422;28;20033;-73
2023/09/09 01:23:47;;;;;;;10.85;5.50;;;;;;;;;;4972535;28;20035;-73
2023/09/09 01:26:12;;;;;;;8.93;5.35;;;;;;;;;;4968488;28;20077;-73
2023/09/09 01:28:38;;;;;;;8.63;5.73;;;;;;;;;;4968520;28;20508;-73
2023/09/09 01:31:03;;;;;;;10.00;5.40;;;;;;;;;;4960755;28;20322;-73
2023/09/09 01:33:28;;;;;;;12.57;5.20;;;;;;;;;;4961773;28;20119;-73
2023/09/09 01:35:53;;;;;;;11.80;5.80;;;;;;;;;;4971614;28;20270;-72
2023/09/09 01:38:18;;;;;;;13.93;4.97;;;;;;;;;;4964093;28;20266;-73
2023/09/09 01:40:43;;;;;;;7.60;5.03;;;;;;;;;;4971147;28;20292;-73
2023/09/09 01:43:09;;;;;;;13.38;5.88;;;;;;;;;;4964676;28;20019;-73
2023/09/09 01:45:34;;;;;;;9.83;5.43;;;;;;;;;;4970058;28;20393;-73
2023/09/09 01:47:59;;;;;;;12.77;5.20;;;;;;;;;;4964382;28;20918;-72
2023/09/09 01:50:24;;;;;;;8.30;5.88;;;;;;;;;;4967717;28;20033;-72
2023/09/09 01:52:49;;;;;;;14.30;5.90;;;;;;;;;;4952693;28;20500;-72
2023/09/09 01:55:15;;;;;;;10.73;5.67;;;;;;;;;;4961593;28;20340;-72
2023/09/09 01:57:40;;;;;;;12.32;6.43;;;;;;;;;;4972675;28;20274;-72
2023/09/09 02:00:08;;;;;;;11.80;6.32;;;;;;;;;;4969050;28;20034;-72
2023/09/09 02:02:34;;;;;;;10.77;6.53;;;;;;;;;;4971030;28;20385;-72
2023/09/09 02:04:59;;;;;;;14.05;7.45;;;;;;;;;;4965797;28;20015;-72
2023/09/09 02:07:24;;;;;;;14.93;7.50;;;;;;;;;;4969573;28;20470;-72
2023/09/09 02:09:49;;;;;;;14.57;7.03;;;;;;;;;;4968365;28;20015;-72
2023/09/09 02:12:14;;;;;;;19.00;8.40;;;;;;;;;;4966120;28;20345;-72
2023/09/09 02:14:40;;;;;;;20.17;8.35;;;;;;;;;;4962824;28;20103;-72
2023/09/09 02:17:05;;;;;;;16.15;7.50;;;;;;;;;;4971444;28;20014;-72
2023/09/09 02:19:30;;;;;;;16.60;7.60;;;;;;;;;;4970390;28;20444;-72
2023/09/09 02:21:56;;;;;;;10.70;6.10;;;;;;;;;;4969952;28;20054;-72
2023/09/09 02:24:21;;;;;;;12.85;7.07;;;;;;;;;;4966117;28;20019;-72
2023/09/09 02:26:46;;;;;;;12.93;6.23;;;;;;;;;;4970401;28;20426;-73
2023/09/09 02:29:11;;;;;;;10.05;6.38;;;;;;;;;;4969496;28;20061;-73
2023/09/09 02:31:36;;;;;;;9.80;5.47;;;;;;;;;;4966800;28;20081;-73
2023/09/09 02:34:02;;;;;;;9.93;5.40;;;;;;;;;;4964577;28;20055;-73
2023/09/09 02:36:27;;;;;;;11.63;5.93;;;;;;;;;;4965143;28;20505;-73
2023/09/09 02:38:52;;;;;;;9.20;5.13;;;;;;;;;;4959412;28;20023;-73
2023/09/09 02:41:17;;;;;;;9.33;5.87;;;;;;;;;;4964939;28;20035;-73
2023/09/09 02:43:42;;;;;;;9.87;5.63;;;;;;;;;;4970383;28;20054;-73
2023/09/09 02:46:08;;;;;;;14.00;5.50;;;;;;;;;;4966723;28;20011;-73
2023/09/09 02:48:33;;;;;;;11.05;5.10;;;;;;;;;;4961090;28;20274;-73
2023/09/09 02:50:59;;;;;;;10.48;5.78;;;;;;;;;;4966995;28;20019;-73
2023/09/09 02:53:24;;;;;;;14.07;6.20;;;;;;;;;;4973629;28;20074;-73
2023/09/09 02:55:49;;;;;;;10.43;6.43;;;;;;;;;;4966072;28;20271;-73
2023/09/09 02:58:14;;;;;;;12.50;6.15;;;;;;;;;;4962327;28;20047;-73
2023/09/09 03:00:40;;;;;;;14.20;6.73;;;;;;;;;;4969939;28;20470;-73
2023/09/09 03:03:05;;;;;;;10.40;6.07;;;;;;;;;;4948797;28;20298;-73
2023/09/09 03:05:37;;;;;;;13.73;5.85;;;;;;;;;;4972204;28;20034;-73
2023/09/09 03:08:03;;;;;;;9.38;5.70;;;;;;;;;;4973747;28;20019;-72
2023/09/09 03:10:28;;;;;;;12.77;6.10;;;;;;;;;;4973074;28;20018;-72
2023/09/09 03:12:56;;;;;;;10.10;5.47;;;;;;;;;;4974961;28;20149;-72
2023/09/09 03:15:21;;;;;;;11.63;5.80;;;;;;;;;;4986472;28;20324;-72
2023/09/09 03:17:46;;;;;;;11.73;5.83;;;;;;;;;;4976626;28;20496;-72
2023/09/09 03:20:13;;;;;;;12.03;6.17;;;;;;;;;;4978116;28;20281;-72
2023/09/09 03:22:38;;;;;;;11.25;5.97;;;;;;;;;;4973136;28;20381;-72
2023/09/09 03:25:03;;;;;;;9.27;5.50;;;;;;;;;;4976495;28;20114;-72
2023/09/09 03:27:29;;;;;;;10.75;5.43;;;;;;;;;;4974113;28;20025;-72
2023/09/09 03:29:54;;;;;;;13.75;6.72;;;;;;;;;;4955172;28;20015;-72
2023/09/09 03:32:19;;;;;;;12.00;7.10;;;;;;;;;;4970443;28;20034;-72
2023/09/09 03:34:44;;;;;;;13.95;7.07;;;;;;;;;;4971409;28;20287;-72
2023/09/09 03:37:10;;;;;;;12.18;7.18;;;;;;;;;;4982306;28;20025;-73
2023/09/09 03:39:35;;;;;;;12.10;6.10;;;;;;;;;;4973353;28;20030;-72
2023/09/09 03:42:00;;;;;;;12.30;7.25;;;;;;;;;;4973433;28;20780;-72
2023/09/09 03:44:25;;;;;;;11.03;6.57;;;;;;;;;;4973065;28;20451;-72
2023/09/09 03:46:50;;;;;;;11.47;6.07;;;;;;;;;;4969714;28;20102;-72
2023/09/09 03:49:16;;;;;;;11.43;5.30;;;;;;;;;;4963597;28;20281;-72
2023/09/09 03:51:41;;;;;;;9.13;5.67;;;;;;;;;;4975258;28;20753;-72
2023/09/09 03:54:06;;;;;;;13.07;5.40;;;;;;;;;;4974673;28;20271;-72
2023/09/09 03:56:31;;;;;;;7.60;5.32;;;;;;;;;;4965031;28;20368;-72
2023/09/09 03:58:56;;;;;;;9.27;5.73;;;;;;;;;;4969511;28;20501;-72
2023/09/09 04:01:21;;;;;;;12.87;5.83;;;;;;;;;;4967078;28;20295;-72
2023/09/09 04:03:47;;;;;;;11.23;5.37;;;;;;;;;;4967280;28;20456;-72
2023/09/09 04:06:12;;;;;;;10.25;5.45;;;;;;;;;;4965987;28;20615;-72
2023/09/09 04:08:38;;;;;;;11.95;5.22;;;;;;;;;;4972701;28;20015;-72
2023/09/09 04:11:03;;;;;;;11.45;5.78;;;;;;;;;;4968692;28;20026;-72
2023/09/09 04:13:28;;;;;;;8.90;5.68;;;;;;;;;;4972906;28;20363;-72
2023/09/09 04:15:54;;;;;;;9.07;5.38;;;;;;;;;;4966137;28;20417;-72
2023/09/09 04:18:19;;;;;;;8.18;5.55;;;;;;;;;;4974177;28;20098;-72
2023/09/09 04:20:45;;;;;;;9.50;6.20;;;;;;;;;;4971385;28;20023;-72
2023/09/09 04:23:10;;;;;;;8.85;5.82;;;;;;;;;;4972821;28;20373;-72
2023/09/09 04:25:35;;;;;;;8.60;5.70;;;;;;;;;;4973176;28;20038;-72
2023/09/09 04:28:00;;;;;;;8.10;5.53;;;;;;;;;;4973365;28;20094;-72
2023/09/09 04:30:25;;;;;;;7.90;5.53;;;;;;;;;;4970370;28;20034;-72
2023/09/09 04:32:50;;;;;;;10.10;6.10;;;;;;;;;;4975280;28;20297;-72
2023/09/09 04:35:16;;;;;;;12.18;6.10;;;;;;;;;;4961522;28;20038;-72
2023/09/09 04:37:41;;;;;;;10.23;5.77;;;;;;;;;;4976118;28;20095;-72
2023/09/09 04:40:08;;;;;;;13.55;6.47;;;;;;;;;;4965256;28;20278;-73
2023/09/09 04:42:33;;;;;;;11.65;5.75;;;;;;;;;;4966040;28;20101;-72
2023/09/09 04:44:58;;;;;;;14.35;6.40;;;;;;;;;;4972029;28;20089;-72
2023/09/09 04:47:24;;;;;;;13.07;5.75;;;;;;;;;;4978680;28;20023;-72
2023/09/09 04:49:49;;;;;;;19.73;6.20;;;;;;;;;;4969266;28;20226;-72
2023/09/09 04:52:14;;;;;;;10.47;6.33;;;;;;;;;;4962374;28;20026;-72
2023/09/09 04:54:39;;;;;;;15.47;5.90;;;;;;;;;;4974240;28;20503;-73
2023/09/09 04:57:05;;;;;;;7.63;5.37;;;;;;;;;;4986552;28;20019;-73
2023/09/09 04:59:30;;;;;;;10.52;5.50;;;;;;;;;;4963210;28;20279;-73
2023/09/09 05:01:55;;;;;;;11.87;6.43;;;;;;;;;;4946940;29;20027;-73
2023/09/09 05:04:20;;;;;;;11.77;6.73;;;;;;;;;;4972653;28;21567;-73
2023/09/09 05:06:45;;;;;;;11.13;6.00;;;;;;;;;;4964715;28;20653;-73
2023/09/09 05:09:11;;;;;;;15.40;6.43;;;;;;;;;;4969229;28;20014;-73
2023/09/09 05:11:36;;;;;;;9.38;5.80;;;;;;;;;;4976776;28;20270;-73
2023/09/09 05:14:01;;;;;;;13.03;5.77;;;;;;;;;;4973327;28;20033;-73
2023/09/09 05:16:28;;;;;;;13.07;5.90;;;;;;;;;;4972998;28;20258;-73
2023/09/09 05:18:53;;;;;;;9.80;6.18;;;;;;;;;;4970000;28;20019;-72
2023/09/09 05:21:19;;;;;;;15.73;6.15;;;;;;;;;;4964894;28;20054;-72
2023/09/09 05:23:44;;;;;;;11.43;5.47;;;;;;;;;;4970750;28;20020;-72
2023/09/09 05:26:09;;;;;;;11.10;5.68;;;;;;;;;;4972975;28;20050;-73
2023/09/09 05:28:34;;;;;;;14.47;6.00;;;;;;;;;;4970507;28;20520;-73
2023/09/09 05:31:04;;;;;;;10.97;5.43;;;;;;;;;;4969802;28;20283;-73
2023/09/09 05:33:29;;;;;;;9.37;5.90;;;;;;;;;;4969563;28;20266;-73
2023/09/09 05:35:54;;;;;;;8.13;5.17;;;;;;;;;;4966641;28;20371;-73
2023/09/09 05:38:19;;;;;;;10.90;5.87;;;;;;;;;;4965810;28;20031;-73
2023/09/09 05:40:44;;;;;;;7.33;5.20;;;;;;;;;;4970134;28;20880;-73
2023/09/09 05:43:09;;;;;;;11.47;6.03;;;;;;;;;;4971672;28;20609;-73
2023/09/09 05:45:35;;;;;;;11.73;5.60;;;;;;;;;;4970960;28;20019;-72
2023/09/09 05:48:00;;;;;;;14.60;7.10;;;;;;;;;;4967329;28;20454;-72
2023/09/09 05:50:25;;;;;;;8.80;5.70;;;;;;;;;;4964031;28;20019;-72
2023/09/09 05:52:50;;;;;;;9.30;5.67;;;;;;;;;;4966503;28;20273;-72
2023/09/09 05:55:15;;;;;;;9.65;5.22;;;;;;;;;;4979751;28;20274;-72
2023/09/09 05:57:40;;;;;;;10.33;6.67;;;;;;;;;;4969567;28;20030;-73
2023/09/09 06:00:06;;;;;;;10.02;6.15;;;;;;;;;;4966636;28;20038;-72
2023/09/09 06:02:31;;;;;;;12.60;7.05;;;;;;;;;;4964374;28;20121;-72
2023/09/09 06:04:57;;;;;;;15.40;7.43;;;;;;;;;;4962160;28;20030;-72
2023/09/09 06:07:23;;;;;;;16.52;6.75;;;;;;;;;;4961145;28;20015;-72
2023/09/09 06:09:48;;;;;;;10.65;6.72;;;;;;;;;;4968943;28;20012;-72
2023/09/09 06:12:13;;;;;;;13.00;6.63;;;;;;;;;;4958980;28;20077;-73
2023/09/09 06:14:38;;;;;;;9.57;6.13;;;;;;;;;;4962162;28;20278;-73
2023/09/09 06:17:03;;;;;;;10.00;5.90;;;;;;;;;;4959846;28;20486;-73
2023/09/09 06:19:28;;;;;;;9.07;5.57;;;;;;;;;;4962112;28;20022;-73
2023/09/09 06:21:54;;;;;;;9.93;5.50;;;;;;;;;;4959237;28;20288;-73
2023/09/09 06:24:19;;;;;;;8.77;5.75;;;;;;;;;;4952604;28;20377;-73
2023/09/09 06:26:44;;;;;;;9.50;5.40;;;;;;;;;;4951762;28;20073;-73
2023/09/09 06:29:09;;;;;;;14.70;5.70;;;;;;;;;;4959339;28;20038;-73
2023/09/09 06:31:34;;;;;;;9.40;5.60;;;;;;;;;;4963192;28;20325;-73
2023/09/09 06:34:00;;;;;;;16.55;5.93;;;;;;;;;;4951340;28;20550;-73
2023/09/09 06:36:25;;;;;;;11.20;5.70;;;;;;;;;;4959320;28;20080;-73
2023/09/09 06:38:50;;;;;;;9.73;5.45;;;;;;;;;;4957019;28;20023;-73
2023/09/09 06:41:15;;;;;;;9.80;5.23;;;;;;;;;;4966571;28;20035;-73
2023/09/09 06:43:41;;;;;;;8.00;5.13;;;;;;;;;;4964291;28;20772;-73
2023/09/09 06:46:06;;;;;;;9.55;5.97;;;;;;;;;;4955041;28;20283;-73
2023/09/09 06:48:31;;;;;;;7.50;5.37;;;;;;;;;;4953703;28;20033;-73
2023/09/09 06:50:56;;;;;;;12.30;5.77;;;;;;;;;;4960893;28;20283;-73
2023/09/09 06:53:22;;;;;;;9.80;5.43;;;;;;;;;;4955493;28;20031;-73
2023/09/09 06:55:47;;;;;;;7.60;5.30;;;;;;;;;;4960859;28;20511;-73
2023/09/09 06:58:12;;;;;;;14.77;5.45;;;;;;;;;;4963974;28;20030;-74
2023/09/09 07:00:38;;;;;;;13.73;5.38;;;;;;;;;;4964690;28;20019;-74
2023/09/09 07:03:03;;;;;;;8.35;4.97;;;;;;;;;;4964997;28;20347;-74
2023/09/09 07:05:30;;;;;;;8.80;4.85;;;;;;;;;;4963967;28;20046;-74
2023/09/09 07:07:55;;;;;;;9.55;5.20;;;;;;;;;;4961563;28;20042;-74
2023/09/09 07:10:21;;;;;;;8.13;4.87;;;;;;;;;;4951484;28;20073;-74
2023/09/09 07:12:49;;;;;;;6.00;4.35;;;;;;;;;;4958928;28;20274;-74
2023/09/09 07:15:14;;;;;;;8.93;5.05;;;;;;;;;;4965452;28;20417;-74
2023/09/09 07:17:40;;;;;;;11.17;4.50;;;;;;;;;;4957709;28;20027;-74
2023/09/09 07:20:06;;;;;;;11.32;5.15;;;;;;;;;;4957114;28;20113;-74
2023/09/09 07:22:31;;;;;;;8.82;4.80;;;;;;;;;;4956376;28;20023;-74
2023/09/09 07:24:56;;;;;;;9.37;5.17;;;;;;;;;;4956789;28;20024;-74
2023/09/09 07:27:21;;;;;;;8.53;5.23;;;;;;;;;;4958528;28;20363;-74
2023/09/09 07:29:46;;;;;;;8.40;5.70;;;;;;;;;;4951216;28;20037;-74
2023/09/09 07:32:11;;;;;;;11.33;4.83;;;;;;;;;;4955409;28;20018;-74
2023/09/09 07:34:37;;;;;;;7.00;5.57;;;;;;;;;;4955821;28;20453;-74
2023/09/09 07:37:02;;;;;;;9.10;5.13;;;;;;;;;;4962775;28;20504;-74
2023/09/09 07:39:27;;;;;;;9.00;4.90;;;;;;;;;;4954627;28;20034;-74
2023/09/09 07:41:52;;;;;;;9.20;5.20;;;;;;;;;;4950678;28;20294;-74
2023/09/09 07:44:18;;;;;;;6.93;5.07;;;;;;;;;;4958699;28;20039;-74
2023/09/09 07:46:43;;;;;;;5.47;4.43;;;;;;;;;;4963180;28;20031;-74
2023/09/09 07:49:08;;;;;;;11.83;4.50;;;;;;;;;;4964996;28;20027;-74
2023/09/09 07:51:33;;;;;;;7.23;4.73;;;;;;;;;;4967152;28;20306;-74
2023/09/09 07:53:58;;;;;;;10.40;5.23;;;;;;;;;;4973065;28;20076;-74
2023/09/09 07:56:24;;;;;;;7.37;4.53;;;;;;;;;;4983468;28;20026;-74
2023/09/09 07:58:50;;;;;;;7.03;4.43;;;;;;;;;;4968124;28;20070;-74
2023/09/09 08:01:15;;;;;;;12.18;5.35;;;;;;;;;;4968027;28;20041;-74
2023/09/09 08:03:40;;;;;;;6.23;4.80;;;;;;;;;;4960882;28;20486;-74
2023/09/09 08:06:06;;;;;;;7.20;4.87;;;;;;;;;;4970887;28;20441;-74
2023/09/09 08:08:35;;;;;;;7.13;4.60;;;;;;;;;;4980322;28;20018;-74
2023/09/09 08:11:01;;;;;;;11.07;4.70;;;;;;;;;;4970422;28;20085;-74
2023/09/09 08:13:26;;;;;;;7.53;4.95;;;;;;;;;;4964189;28;20018;-74
2023/09/09 08:15:52;;;;;;;11.53;5.27;;;;;;;;;;4963578;28;20419;-74
2023/09/09 08:18:17;;;;;;;21.23;6.00;;;;;;;;;;4973179;28;20106;-74
2023/09/09 08:20:42;;;;;;;5.90;4.63;;;;;;;;;;4967879;28;20629;-74
2023/09/09 08:23:08;;;;;;;8.00;4.43;;;;;;;;;;4967142;28;20041;-74
2023/09/09 08:25:33;;;;;;;10.57;4.95;;;;;;;;;;4981775;28;20113;-74
2023/09/09 08:28:01;;;;;;;5.85;4.50;;;;;;;;;;4986849;28;20022;-74
2023/09/09 08:30:26;;;;;;;7.40;4.93;;;;;;;;;;4970891;28;20106;-74
2023/09/09 08:32:51;;;;;;;9.97;5.07;;;;;;;;;;4969168;28;20114;-74
2023/09/09 08:35:17;;;;;;;7.40;4.17;;;;;;;;;;4969311;28;20124;-74
2023/09/09 08:37:42;;;;;;;11.20;4.57;;;;;;;;;;4961876;28;20063;-74
2023/09/09 08:40:08;;;;;;;6.47;5.07;;;;;;;;;;4972749;28;20058;-74
2023/09/09 08:43:06;;;;;;;7.57;4.40;;;;;;;;;;4969118;28;20106;-74
2023/09/09 08:45:33;;;;;;;11.30;5.00;;;;;;;;;;4938188;28;20042;-74
2023/09/09 08:47:58;;;;;;;8.43;5.88;;;;;;;;;;4963952;28;20476;-74
2023/09/09 08:50:24;;;;;;;11.27;4.93;;;;;;;;;;4967864;28;20481;-74
2023/09/09 08:52:52;;;;;;;8.23;4.88;;;;;;;;;;4966370;28;20021;-74
2023/09/09 08:55:18;;;;;;;9.93;4.93;;;;;;;;;;4969502;28;20045;-73
2023/09/09 08:57:43;;;;;;;12.85;5.60;;;;;;;;;;4967486;28;20026;-74
2023/09/09 09:00:10;;;;;;;8.55;5.45;;;;;;;;;;4962318;28;20055;-74
2023/09/09 09:02:35;;;;;;;8.65;5.90;;;;;;;;;;4966650;28;20500;-74
2023/09/09 09:05:02;;;;;;;9.50;5.78;;;;;;;;;;4964907;28;20034;-74
2023/09/09 09:07:28;;;;;;;7.90;5.72;;;;;;;;;;4945590;28;20030;-74
2023/09/09 09:09:54;;;;;;;8.45;4.97;;;;;;;;;;4952744;28;20107;-74
2023/09/09 09:12:20;;;;;;;8.75;5.25;;;;;;;;;;4968786;28;20044;-73
2023/09/09 09:14:48;;;;;;;7.93;6.05;;;;;;;;;;4969702;28;20026;-74
2023/09/09 09:17:16;;;;;;;9.75;5.78;;;;;;;;;;4967533;28;20872;-74
2023/09/09 09:19:42;;;;;;;9.88;5.53;;;;;;;;;;4968968;28;20434;-74
2023/09/09 09:22:08;;;;;;;9.07;5.20;;;;;;;;;;4966444;28;20089;-74
2023/09/09 09:24:40;;;;;;;8.40;5.50;;;;;;;;;;4966557;28;20023;-74
2023/09/09 09:27:08;;;;;;;8.45;5.78;;;;;;;;;;4968831;28;20030;-74
2023/09/09 09:29:41;;;;;;;8.52;5.47;;;;;;;;;;4968766;28;20102;-74
2023/09/09 09:32:08;;;;;;;10.65;5.43;;;;;;;;;;4960032;28;20030;-74
2023/09/09 09:34:34;;;;;;;10.82;6.20;;;;;;;;;;4959017;28;20027;-74
2023/09/09 09:37:02;;;;;;;9.23;6.13;;;;;;;;;;4963264;28;20027;-74
2023/09/09 09:39:33;;;;;;;8.65;6.30;;;;;;;;;;4961901;28;20027;-73
2023/09/09 09:41:58;;;;;;;11.88;6.00;;;;;;;;;;4970016;28;20031;-73
2023/09/09 09:44:23;;;;;;;16.30;5.78;;;;;;;;;;4966167;28;20019;-74
2023/09/09 09:47:02;;;;;;;9.00;5.67;;;;;;;;;;4964288;28;20037;-74
2023/09/09 09:49:37;;;;;;;20.27;5.70;;;;;;;;;;4972822;28;20031;-74
2023/09/09 09:52:03;;;;;;;8.63;5.43;;;;;;;;;;4972908;28;20109;-73
2023/09/09 09:54:29;;;;;;;18.05;4.85;;;;;;;;;;4958606;28;20113;-73
2023/09/09 09:56:55;;;;;;;23.15;5.80;;;;;;;;;;4977850;28;20031;-73
2023/09/09 09:59:21;;;;;;;14.38;5.53;;;;;;;;;;4972072;28;20370;-73
2023/09/09 10:01:47;;;;;;;22.75;5.10;;;;;;;;;;4967761;28;20030;-73
2023/09/09 10:04:16;;;;;;;14.15;5.18;;;;;;;;;;4969560;28;20045;-73
2023/09/09 10:06:42;;;;;;;16.40;5.10;;;;;;;;;;4966314;28;20023;-73
2023/09/09 10:09:08;;;;;;;12.73;5.20;;;;;;;;;;4969659;28;20363;-73
2023/09/09 10:11:35;;;;;;;10.93;4.93;;;;;;;;;;4972992;28;20022;-73
2023/09/09 10:14:06;;;;;;;15.23;4.70;;;;;;;;;;4965622;28;20062;-73
2023/09/09 10:16:32;;;;;;;7.43;4.53;;;;;;;;;;4952327;28;20034;-73
2023/09/09 10:18:57;;;;;;;17.08;5.88;;;;;;;;;;4955214;28;20023;-74
2023/09/09 10:21:24;;;;;;;14.55;6.10;;;;;;;;;;4968843;28;20093;-74
2023/09/09 10:23:49;;;;;;;17.70;5.22;;;;;;;;;;4975205;28;20023;-74
2023/09/09 10:26:16;;;;;;;12.95;4.90;;;;;;;;;;4971690;28;20432;-73
2023/09/09 10:28:42;;;;;;;12.48;5.78;;;;;;;;;;4962932;28;20027;-73
2023/09/09 10:31:11;;;;;;;18.10;4.88;;;;;;;;;;4951707;28;20626;-73
2023/09/09 10:33:36;;;;;;;17.20;4.82;;;;;;;;;;4964960;28;20555;-73
2023/09/09 10:36:02;;;;;;;15.32;4.85;;;;;;;;;;4970381;28;20059;-73
2023/09/09 10:38:27;;;;;;;14.70;5.10;;;;;;;;;;4970955;28;20054;-73
2023/09/09 10:40:52;;;;;;;10.30;4.80;;;;;;;;;;4968248;28;20023;-73
2023/09/09 10:43:18;;;;;;;13.40;4.70;;;;;;;;;;4971699;28;20158;-73
2023/09/09 10:45:43;;;;;;;15.03;4.70;;;;;;;;;;4972160;28;20098;-73
2023/09/09 10:48:10;;;;;;;9.77;4.82;;;;;;;;;;4970317;28;20037;-73
2023/09/09 10:50:43;;;;;;;17.98;6.10;;;;;;;;;;4967880;28;20042;-73
2023/09/09 10:53:32;;;;;;;16.83;5.38;;;;;;;;;;4967158;28;20031;-73
2023/09/09 10:56:01;;;;;;;15.68;5.28;;;;;;;;;;4964490;28;20404;-73
2023/09/09 10:58:31;;;;;;;15.13;6.18;;;;;;;;;;4971044;28;20429;-73
2023/09/09 11:00:57;;;;;;;27.08;6.57;;;;;;;;;;4969306;28;20030;-73
2023/09/09 11:03:24;;;;;;;21.52;5.88;;;;;;;;;;4971377;28;20466;-73
2023/09/09 11:05:56;;;;;;;24.92;6.75;;;;;;;;;;4970445;28;20481;-73
2023/09/09 11:08:29;;;;;;;20.90;5.63;;;;;;;;;;4967570;28;20019;-73
2023/09/09 11:11:04;;;;;;;14.13;5.15;;;;;;;;;;4962809;28;20023;-74
2023/09/09 11:13:39;;;;;;;14.40;5.63;;;;;;;;;;4968985;28;20033;-73
2023/09/09 11:16:05;;;;;;;21.00;5.53;;;;;;;;;;4970661;28;20154;-73
2023/09/09 11:18:31;;;;;;;20.98;5.35;;;;;;;;;;4963585;28;20023;-73
2023/09/09 11:20:58;;;;;;;16.50;5.07;;;;;;;;;;4967053;28;20026;-73
2023/09/09 11:23:23;;;;;;;13.18;6.47;;;;;;;;;;4969010;28;20525;-73
2023/09/09 11:25:48;;;;;;;10.77;5.83;;;;;;;;;;4953173;28;20106;-73
2023/09/09 11:28:14;;;;;;;21.58;6.93;;;;;;;;;;4971648;28;20749;-73
2023/09/09 11:30:39;;;;;;;16.83;5.38;;;;;;;;;;4974808;28;20046;-73
2023/09/09 11:33:05;;;;;;;24.55;6.95;;;;;;;;;;4955092;28;20406;-73
2023/09/09 11:35:30;;;;;;;15.07;5.07;;;;;;;;;;4965284;28;20027;-73
2023/09/09 11:38:00;;;;;;;15.17;5.77;;;;;;;;;;4972869;28;20097;-73
2023/09/09 11:40:26;;;;;;;18.88;5.72;;;;;;;;;;4972690;28;20312;-73
2023/09/09 11:42:51;;;;;;;13.93;4.93;;;;;;;;;;4970725;28;20482;-73
2023/09/09 11:45:17;;;;;;;18.30;5.68;;;;;;;;;;4973007;28;20014;-73
2023/09/09 11:47:42;;;;;;;16.80;6.10;;;;;;;;;;4974189;28;20022;-73
2023/09/09 11:50:07;;;;;;;14.33;5.60;;;;;;;;;;4977049;28;20030;-73
2023/09/09 11:52:33;;;;;;;25.60;8.60;;;;;;;;;;4963930;28;20020;-73
2023/09/09 11:54:58;;;;;;;28.37;11.00;;;;;;;;;;4956938;28;20042;-73
2023/09/09 11:57:23;;;;;;;11.83;4.73;;;;;;;;;;4973266;28;20030;-73
2023/09/09 11:59:49;;;;;;;21.47;5.30;;;;;;;;;;4972784;28;20030;-73
2023/09/09 12:02:18;;;;;;;17.35;5.18;;;;;;;;;;4965175;28;20019;-73
2023/09/09 12:04:53;;;;;;;14.60;5.60;;;;;;;;;;4969242;28;20029;-73
2023/09/09 12:07:18;;;;;;;18.17;5.05;;;;;;;;;;4954718;28;20015;-73
2023/09/09 12:09:44;;;;;;;25.38;6.55;;;;;;;;;;4963606;28;20077;-73
2023/09/09 12:12:09;;;;;;;30.20;5.80;;;;;;;;;;4971315;28;20489;-73
2023/09/09 12:14:34;;;;;;;15.95;5.35;;;;;;;;;;4964606;28;20113;-73
2023/09/09 12:17:00;;;;;;;15.07;5.50;;;;;;;;;;4970840;28;20023;-73
2023/09/09 12:19:25;;;;;;;20.07;6.07;;;;;;;;;;4972455;28;20037;-73
2023/09/09 12:21:50;;;;;;;17.60;6.07;;;;;;;;;;4967478;28;20809;-73
2023/09/09 12:24:15;;;;;;;14.53;4.97;;;;;;;;;;4969616;28;20031;-73
2023/09/09 12:26:49;;;;;;;16.70;5.43;;;;;;;;;;4964190;28;20486;-73
2023/09/09 12:29:14;;;;;;;18.42;5.93;;;;;;;;;;4966304;28;20558;-74
2023/09/09 12:31:49;;;;;;;17.53;5.13;;;;;;;;;;4962133;28;20340;-73
2023/09/09 12:34:21;;;;;;;12.48;4.63;;;;;;;;;;4970518;28;20302;-73
2023/09/09 12:36:48;;;;;;;17.98;5.57;;;;;;;;;;4965426;28;20155;-74
2023/09/09 12:39:29;;;;;;;24.40;4.18;;;;;;;;;;4959938;28;20023;-74
2023/09/09 12:42:01;;;;;;;16.55;6.82;;;;;;;;;;4965708;28;20548;-74
2023/09/09 12:44:27;;;;;;;20.27;5.88;;;;;;;;;;4953911;28;20031;-74
2023/09/09 12:46:52;;;;;;;16.45;5.55;;;;;;;;;;4966192;28;20034;-74
2023/09/09 12:49:18;;;;;;;16.60;5.45;;;;;;;;;;4965979;28;20022;-74
2023/09/09 12:51:43;;;;;;;22.27;6.00;;;;;;;;;;4969191;28;20038;-74
2023/09/09 12:54:08;;;;;;;11.43;5.70;;;;;;;;;;4965137;28;20030;-74
2023/09/09 12:56:33;;;;;;;13.73;4.83;;;;;;;;;;4969492;28;20572;-74
2023/09/09 12:58:58;;;;;;;25.90;5.27;;;;;;;;;;4966756;28;20027;-74
2023/09/09 13:01:23;;;;;;;22.17;5.27;;;;;;;;;;4954703;28;20031;-74
2023/09/09 13:03:49;;;;;;;24.87;5.87;;;;;;;;;;4968055;28;20434;-74
2023/09/09 13:06:14;;;;;;;22.23;6.27;;;;;;;;;;4960370;28;20027;-74
2023/09/09 13:08:39;;;;;;;23.98;6.25;;;;;;;;;;4964503;28;20342;-74
2023/09/09 13:11:05;;;;;;;14.07;5.65;;;;;;;;;;4970300;28;20018;-74
2023/09/09 13:13:30;;;;;;;18.73;5.75;;;;;;;;;;4963986;28;20037;-74
2023/09/09 13:15:56;;;;;;;16.30;5.65;;;;;;;;;;4965107;28;20086;-74
2023/09/09 13:18:21;;;;;;;21.73;5.33;;;;;;;;;;4963654;28;20030;-74
2023/09/09 13:20:46;;;;;;;25.33;5.40;;;;;;;;;;4971295;28;20014;-74
2023/09/09 13:23:12;;;;;;;24.43;5.83;;;;;;;;;;4966131;28;20103;-73
2023/09/09 13:25:37;;;;;;;19.83;6.03;;;;;;;;;;4971313;28;20272;-73
2023/09/09 13:28:03;;;;;;;18.60;5.40;;;;;;;;;;4971930;28;20098;-73
2023/09/09 13:30:28;;;;;;;22.02;4.75;;;;;;;;;;4976871;28;20326;-74
2023/09/09 13:32:53;;;;;;;20.93;4.87;;;;;;;;;;4971754;28;20573;-74
2023/09/09 13:35:18;;;;;;;20.83;5.27;;;;;;;;;;4963026;28;20070;-74
2023/09/09 13:37:43;;;;;;;26.40;5.53;;;;;;;;;;4952997;28;20023;-73
2023/09/09 13:40:09;;;;;;;23.37;6.37;;;;;;;;;;4961064;28;20556;-74
2023/09/09 13:42:34;;;;;;;26.02;4.80;;;;;;;;;;4966496;28;20098;-74
2023/09/09 13:44:59;;;;;;;19.10;4.57;;;;;;;;;;4951407;28;20284;-74
2023/09/09 13:47:24;;;;;;;24.73;4.73;;;;;;;;;;4972011;28;20269;-74
2023/09/09 13:49:50;;;;;;;24.43;4.53;;;;;;;;;;4971626;28;20435;-74
2023/09/09 13:52:15;;;;;;;21.40;5.37;;;;;;;;;;4967580;28;20962;-73
2023/09/09 13:54:40;;;;;;;21.50;5.17;;;;;;;;;;4967076;28;20531;-73
2023/09/09 13:57:06;;;;;;;22.67;4.93;;;;;;;;;;4967552;28;20839;-74
2023/09/09 13:59:31;;;;;;;19.13;5.30;;;;;;;;;;4960412;28;22342;-74
2023/09/09 14:01:56;;;;;;;24.23;6.22;;;;;;;;;;4963499;28;20492;-74
2023/09/09 14:04:22;;;;;;;18.57;4.90;;;;;;;;;;4950038;28;20031;-74
2023/09/09 14:06:47;;;;;;;20.57;4.23;;;;;;;;;;4967502;28;20330;-74
2023/09/09 14:09:12;;;;;;;37.30;5.97;;;;;;;;;;4965528;28;20314;-74
2023/09/09 14:11:37;;;;;;;18.20;4.47;;;;;;;;;;4967123;28;20026;-74
2023/09/09 14:14:03;;;;;;;22.92;4.72;;;;;;;;;;4970320;28;20026;-74
2023/09/09 14:16:28;;;;;;;22.42;4.90;;;;;;;;;;4961510;28;20104;-74
2023/09/09 14:18:53;;;;;;;19.57;4.23;;;;;;;;;;4967877;28;20410;-75
2023/09/09 14:21:19;;;;;;;24.73;4.60;;;;;;;;;;4961496;28;20370;-74
2023/09/09 14:23:44;;;;;;;23.88;4.80;;;;;;;;;;4964906;28;20022;-74
2023/09/09 14:26:10;;;;;;;19.88;5.53;;;;;;;;;;4964768;28;20451;-74